| time (UTC) | temp F | wind direction | speed knots | gust knots | rain 1hr in | rain 24hr in | rain mn in | humidity % | barometer mb |
| 20260510065516 | 47 | 234 | 0.9 | 1.7 | 0.00 | 1.77 | 0.91 | 99 | 1011.5 |
| 20260510064536 | 47 | 0.0 | 0.0 | 0.00 | 1.79 | 0.91 | 98 | 1011.8 | |
| 20260510063516 | 47 | 0.0 | 0.0 | 0.00 | 1.82 | 0.91 | 99 | 1011.9 | |
| 20260510062516 | 47 | 0.0 | 0.9 | 0.00 | 1.82 | 0.91 | 99 | 1011.9 | |
| 20260510061536 | 47 | 230 | 0.9 | 2.6 | 0.00 | 1.82 | 0.91 | 99 | 1012.1 |
| 20260510060516 | 47 | 212 | 0.9 | 5.2 | 0.00 | 1.82 | 0.91 | 99 | 1012.1 |
| 20260510055516 | 46 | 266 | 0.9 | 2.6 | 0.00 | 1.82 | 0.91 | 99 | 1012.1 |
| 20260510054516 | 46 | 0.0 | 0.0 | 0.00 | 1.82 | 0.91 | 98 | 1011.8 | |
| 20260510053516 | 46 | 0.0 | 0.0 | 0.00 | 1.82 | 0.91 | 98 | 1011.6 | |
| 20260510052516 | 46 | 0.0 | 0.0 | 0.00 | 1.82 | 0.91 | 98 | 1011.3 | |
| 20260510051516 | 47 | 0.0 | 0.0 | 0.00 | 1.82 | 0.91 | 98 | 1011.4 | |
| 20260510050516 | 47 | 0.0 | 0.0 | 0.00 | 1.82 | 0.91 | 98 | 1011.4 | |
| 20260510045516 | 47 | 144 | 0.0 | 2.6 | 0.00 | 1.82 | 0.91 | 98 | 1011.5 |
| 20260510044516 | 47 | 206 | 0.9 | 4.3 | 0.00 | 1.82 | 0.91 | 97 | 1011.5 |
| 20260510043516 | 47 | 177 | 0.9 | 5.2 | 0.00 | 1.82 | 0.91 | 97 | 1011.6 |
| 20260510042516 | 48 | 219 | 1.7 | 7.8 | 0.00 | 1.82 | 0.91 | 97 | 1011.4 |
| 20260510041516 | 48 | 216 | 2.6 | 6.1 | 0.00 | 1.82 | 0.91 | 97 | 1011.0 |
| 20260510040516 | 48 | 216 | 2.6 | 5.2 | 0.00 | 1.82 | 0.91 | 97 | 1011.0 |
| 20260510035516 | 48 | 206 | 2.6 | 5.2 | 0.00 | 1.82 | 0.91 | 97 | 1011.0 |
| 20260510034536 | 48 | 244 | 1.7 | 4.3 | 0.00 | 1.82 | 0.91 | 97 | 1011.0 |
| 20260510033536 | 48 | 204 | 2.6 | 8.7 | 0.00 | 1.82 | 0.91 | 98 | 1011.0 |
| 20260510032556 | 48 | 180 | 3.5 | 7.8 | 0.00 | 1.82 | 0.91 | 98 | 1011.0 |
| 20260510031537 | 48 | 201 | 1.7 | 4.3 | 0.00 | 1.82 | 0.91 | 98 | 1011.0 |
| 20260510030536 | 48 | 199 | 2.6 | 6.1 | 0.00 | 1.82 | 0.91 | 98 | 1011.1 |
| 20260510025516 | 48 | 224 | 3.5 | 8.7 | 0.00 | 1.82 | 0.91 | 98 | 1011.1 |
| 20260510024516 | 47 | 178 | 1.7 | 4.3 | 0.00 | 1.82 | 0.91 | 97 | 1010.9 |
| 20260510023516 | 47 | 166 | 0.9 | 2.6 | 0.00 | 1.82 | 0.91 | 96 | 1010.8 |
| 20260510022516 | 48 | 166 | 0.0 | 2.6 | 0.00 | 1.82 | 0.91 | 96 | 1010.7 |
| 20260510021516 | 48 | 216 | 1.7 | 5.2 | 0.00 | 1.82 | 0.91 | 96 | 1010.7 |
| 20260510020516 | 48 | 229 | 1.7 | 5.2 | 0.00 | 1.82 | 0.91 | 96 | 1010.9 |
| 20260510015517 | 48 | 190 | 1.7 | 5.2 | 0.00 | 1.82 | 0.91 | 96 | 1010.7 |
| 20260510014516 | 48 | 207 | 0.9 | 5.2 | 0.00 | 1.82 | 0.91 | 96 | 1010.5 |
| 20260510013516 | 48 | 264 | 0.9 | 4.3 | 0.00 | 1.82 | 0.91 | 96 | 1010.7 |
| 20260510012516 | 49 | 169 | 1.7 | 5.2 | 0.00 | 1.82 | 0.91 | 96 | 1010.6 |
| 20260510011516 | 49 | 219 | 1.7 | 4.3 | 0.00 | 1.82 | 0.91 | 96 | 1010.6 |
| 20260510010516 | 48 | 183 | 2.6 | 6.1 | 0.00 | 1.82 | 0.91 | 96 | 1010.6 |
| 20260510005515 | 48 | 191 | 1.7 | 5.2 | 0.00 | 1.82 | 0.91 | 96 | 1010.6 |
| 20260510004515 | 49 | 173 | 0.9 | 6.1 | 0.00 | 1.82 | 0.91 | 96 | 1010.4 |
| 20260510003514 | 49 | 181 | 1.7 | 5.2 | 0.00 | 1.82 | 0.91 | 96 | 1010.4 |
| 20260510002515 | 49 | 189 | 2.6 | 6.1 | 0.00 | 1.82 | 0.91 | 95 | 1009.9 |
| 20260510001515 | 49 | 208 | 2.6 | 8.7 | 0.00 | 1.82 | 0.91 | 95 | 1009.9 |
| 20260510000514 | 49 | 190 | 0.0 | 4.3 | 0.00 | 1.82 | 0.91 | 95 | 1009.8 |
| 20260509235515 | 49 | 212 | 0.9 | 5.2 | 0.91 | 1.82 | 0.91 | 95 | 1009.7 |
| 20260509234515 | 49 | 218 | 0.9 | 3.5 | 0.91 | 1.82 | 0.91 | 95 | 1009.6 |
| 20260509233515 | 49 | 193 | 1.7 | 5.2 | 0.91 | 1.82 | 0.91 | 95 | 1009.5 |
| 20260509232515 | 49 | 201 | 2.6 | 5.2 | 0.91 | 1.82 | 0.91 | 94 | 1009.4 |
| 20260509231515 | 49 | 188 | 1.7 | 6.1 | 0.91 | 1.82 | 0.91 | 94 | 1009.3 |
| 20260509230515 | 49 | 186 | 1.7 | 4.3 | 0.91 | 1.82 | 0.91 | 95 | 1009.2 |
| 20260509225515 | 50 | 203 | 1.7 | 4.3 | 0.00 | 0.91 | 0.91 | 94 | 1009.2 |
| 20260509224515 | 50 | 188 | 1.7 | 5.2 | 0.00 | 0.91 | 0.91 | 93 | 1009.1 |
| 20260509223515 | 50 | 191 | 2.6 | 6.1 | 0.00 | 0.91 | 0.91 | 93 | 1009.1 |
| 20260509222515 | 50 | 198 | 2.6 | 5.2 | 0.00 | 0.91 | 0.91 | 94 | 1009.2 |
| 20260509221514 | 50 | 182 | 2.6 | 6.1 | 0.00 | 0.91 | 0.91 | 94 | 1009.3 |
| 20260509220515 | 49 | 205 | 1.7 | 3.5 | 0.00 | 0.91 | 0.91 | 95 | 1009.4 |
| 20260509215515 | 49 | 176 | 2.6 | 7.8 | 0.00 | 0.91 | 0.91 | 94 | 1009.6 |
| 20260509214537 | 49 | 211 | 2.6 | 5.2 | 0.00 | 0.91 | 0.91 | 95 | 1009.6 |
| 20260509213516 | 49 | 242 | 2.6 | 7.0 | 0.01 | 0.91 | 0.91 | 97 | 1009.6 |
| 20260509212516 | 48 | 195 | 3.5 | 7.0 | 0.01 | 0.91 | 0.91 | 97 | 1009.6 |
| 20260509211516 | 48 | 208 | 3.5 | 7.8 | 0.01 | 0.91 | 0.91 | 97 | 1009.8 |
| 20260509210516 | 48 | 198 | 1.7 | 6.1 | 0.02 | 0.91 | 0.91 | 97 | 1009.9 |
| 20260509205516 | 48 | 182 | 2.6 | 7.0 | 0.02 | 0.91 | 0.91 | 97 | 1009.9 |
| 20260509204516 | 48 | 188 | 3.5 | 7.8 | 0.03 | 0.91 | 0.91 | 96 | 1010.0 |
| 20260509203516 | 48 | 179 | 3.5 | 8.7 | 0.03 | 0.90 | 0.90 | 97 | 1010.1 |
| 20260509202516 | 48 | 258 | 5.2 | 6.1 | 0.04 | 0.90 | 0.90 | 96 | 1010.2 |
| 20260509201516 | 48 | 189 | 3.5 | 10.4 | 0.04 | 0.90 | 0.90 | 96 | 1010.4 |
| 20260509200556 | 48 | 172 | 3.5 | 8.7 | 0.04 | 0.89 | 0.89 | 97 | 1010.5 |
| 20260509195516 | 48 | 200 | 5.2 | 13.9 | 0.05 | 0.89 | 0.89 | 96 | 1010.6 |
| 20260509194536 | 48 | 187 | 2.6 | 9.6 | 0.05 | 0.88 | 0.88 | 96 | 1010.7 |
| 20260509193516 | 48 | 175 | 3.5 | 13.0 | 0.05 | 0.87 | 0.87 | 95 | 1010.7 |
| 20260509192556 | 48 | 186 | 4.3 | 10.4 | 0.05 | 0.86 | 0.86 | 96 | 1010.9 |
| 20260509191516 | 48 | 177 | 4.3 | 15.6 | 0.06 | 0.86 | 0.86 | 96 | 1010.9 |
| 20260509190516 | 48 | 184 | 3.5 | 13.0 | 0.07 | 0.85 | 0.85 | 96 | 1010.9 |
| 20260509185516 | 48 | 189 | 5.2 | 12.2 | 0.07 | 0.84 | 0.84 | 96 | 1010.9 |
| 20260509184515 | 48 | 176 | 4.3 | 12.2 | 0.07 | 0.83 | 0.83 | 97 | 1010.9 |
| 20260509183515 | 48 | 172 | 2.6 | 9.6 | 0.08 | 0.82 | 0.82 | 97 | 1010.9 |
| 20260509182515 | 47 | 174 | 4.3 | 8.7 | 0.08 | 0.81 | 0.81 | 97 | 1010.9 |
| 20260509181515 | 47 | 178 | 5.2 | 12.2 | 0.09 | 0.80 | 0.80 | 97 | 1010.9 |
| 20260509180515 | 47 | 198 | 3.5 | 11.3 | 0.08 | 0.78 | 0.78 | 97 | 1010.7 |
| 20260509175515 | 47 | 190 | 4.3 | 10.4 | 0.08 | 0.77 | 0.77 | 97 | 1010.7 |
| 20260509174515 | 46 | 172 | 4.3 | 9.6 | 0.08 | 0.76 | 0.76 | 97 | 1010.6 |
| 20260509173515 | 46 | 158 | 3.5 | 8.7 | 0.08 | 0.74 | 0.74 | 97 | 1010.7 |
| 20260509172515 | 46 | 183 | 2.6 | 4.3 | 0.08 | 0.73 | 0.73 | 97 | 1010.7 |
| 20260509171515 | 46 | 198 | 2.6 | 9.6 | 0.07 | 0.71 | 0.71 | 96 | 1010.8 |
| 20260509170515 | 46 | 203 | 3.5 | 7.8 | 0.08 | 0.70 | 0.70 | 96 | 1010.7 |
| 20260509165515 | 47 | 167 | 2.6 | 7.0 | 0.07 | 0.69 | 0.69 | 97 | 1010.7 |
| 20260509164515 | 47 | 178 | 2.6 | 7.8 | 0.07 | 0.68 | 0.68 | 97 | 1010.8 |
| 20260509163515 | 46 | 181 | 2.6 | 7.0 | 0.05 | 0.66 | 0.66 | 97 | 1010.9 |
| 20260509162515 | 46 | 150 | 2.6 | 7.0 | 0.05 | 0.65 | 0.65 | 97 | 1011.2 |
| 20260509161515 | 46 | 171 | 2.6 | 5.2 | 0.06 | 0.64 | 0.64 | 97 | 1011.3 |
| 20260509160515 | 46 | 171 | 1.7 | 5.2 | 0.05 | 0.62 | 0.62 | 97 | 1011.3 |
| 20260509155515 | 46 | 210 | 1.7 | 4.3 | 0.06 | 0.62 | 0.62 | 97 | 1011.5 |
| 20260509154515 | 46 | 171 | 2.6 | 6.1 | 0.06 | 0.61 | 0.61 | 97 | 1011.6 |
| 20260509153515 | 45 | 172 | 1.7 | 4.3 | 0.06 | 0.61 | 0.61 | 97 | 1011.7 |
| 20260509152515 | 45 | 128 | 2.6 | 5.2 | 0.06 | 0.60 | 0.60 | 97 | 1011.9 |
| 20260509151515 | 45 | 172 | 1.7 | 5.2 | 0.05 | 0.58 | 0.58 | 97 | 1012.0 |
| 20260509150515 | 45 | 156 | 2.6 | 6.1 | 0.05 | 0.57 | 0.57 | 96 | 1012.0 |
| 20260509145515 | 45 | 151 | 2.6 | 7.0 | 0.05 | 0.56 | 0.56 | 96 | 1012.0 |
| 20260509144515 | 44 | 155 | 3.5 | 8.7 | 0.05 | 0.55 | 0.55 | 96 | 1011.9 |
| 20260509143515 | 44 | 148 | 3.5 | 7.8 | 0.06 | 0.55 | 0.55 | 96 | 1011.9 |
| 20260509142515 | 44 | 145 | 3.5 | 7.0 | 0.06 | 0.54 | 0.54 | 96 | 1012.0 |
| 20260509141555 | 44 | 144 | 4.3 | 8.7 | 0.06 | 0.53 | 0.53 | 96 | 1012.0 |
| 20260509140515 | 44 | 168 | 3.5 | 7.8 | 0.05 | 0.52 | 0.52 | 96 | 1012.0 |
| 20260509135515 | 44 | 150 | 4.3 | 8.7 | 0.04 | 0.51 | 0.51 | 95 | 1012.0 |
| 20260509134515 | 44 | 143 | 4.3 | 8.7 | 0.03 | 0.50 | 0.50 | 95 | 1012.0 |
| 20260509133515 | 44 | 151 | 3.5 | 12.2 | 0.02 | 0.49 | 0.49 | 94 | 1011.8 |
| 20260509132535 | 44 | 149 | 3.5 | 8.7 | 0.01 | 0.48 | 0.48 | 94 | 1011.7 |
| 20260509131515 | 44 | 138 | 3.5 | 7.8 | 0.00 | 0.47 | 0.47 | 94 | 1011.7 |
| 20260509130515 | 44 | 156 | 1.7 | 6.1 | 0.00 | 0.47 | 0.47 | 94 | 1011.7 |
| 20260509125515 | 44 | 137 | 2.6 | 6.1 | 0.00 | 0.47 | 0.47 | 95 | 1011.7 |
| 20260509124535 | 44 | 137 | 1.7 | 7.0 | 0.00 | 0.47 | 0.47 | 95 | 1011.7 |
| 20260509123515 | 44 | 142 | 1.7 | 3.5 | 0.00 | 0.47 | 0.47 | 96 | 1012.0 |
| 20260509122516 | 44 | 133 | 1.7 | 3.5 | 0.00 | 0.47 | 0.47 | 97 | 1011.9 |
| 20260509121516 | 44 | 124 | 1.7 | 3.5 | 0.01 | 0.47 | 0.47 | 97 | 1012.0 |
| 20260509120516 | 44 | 151 | 1.7 | 4.3 | 0.01 | 0.47 | 0.47 | 97 | 1012.0 |
| 20260509115516 | 44 | 116 | 0.9 | 3.5 | 0.01 | 0.47 | 0.47 | 98 | 1012.1 |
| 20260509114516 | 44 | 122 | 0.9 | 6.1 | 0.02 | 0.47 | 0.47 | 98 | 1012.1 |
| 20260509113516 | 43 | 138 | 1.7 | 3.5 | 0.02 | 0.47 | 0.47 | 98 | 1012.0 |
| 20260509112516 | 43 | 110 | 0.9 | 3.5 | 0.03 | 0.47 | 0.47 | 98 | 1012.1 |
| 20260509111516 | 43 | 55 | 0.9 | 3.5 | 0.03 | 0.46 | 0.46 | 98 | 1012.2 |
| 20260509110516 | 43 | 185 | 0.9 | 2.6 | 0.04 | 0.46 | 0.46 | 98 | 1012.1 |
| 20260509105516 | 43 | 185 | 0.9 | 1.7 | 0.06 | 0.46 | 0.46 | 98 | 1012.2 |
| 20260509104516 | 43 | 185 | 0.9 | 2.6 | 0.05 | 0.45 | 0.45 | 98 | 1012.2 |
| 20260509103516 | 43 | 185 | 0.0 | 1.7 | 0.07 | 0.45 | 0.45 | 98 | 1012.2 |
| 20260509102516 | 43 | 185 | 0.0 | 0.9 | 0.07 | 0.44 | 0.44 | 98 | 1012.1 |
| 20260509101516 | 43 | 185 | 0.0 | 1.7 | 0.07 | 0.43 | 0.43 | 98 | 1012.0 |
| 20260509100536 | 43 | 185 | 0.9 | 2.6 | 0.08 | 0.42 | 0.42 | 98 | 1012.0 |
| 20260509095516 | 43 | 185 | 0.0 | 3.5 | 0.07 | 0.40 | 0.40 | 98 | 1012.0 |
| 20260509094516 | 43 | 0.0 | 0.0 | 0.09 | 0.40 | 0.40 | 98 | 1012.1 | |
| 20260509093516 | 43 | 0.0 | 1.7 | 0.08 | 0.38 | 0.38 | 98 | 1012.2 | |
| 20260509092535 | 42 | 211 | 0.9 | 1.7 | 0.10 | 0.37 | 0.37 | 98 | 1012.1 |
| 20260509091535 | 42 | 211 | 0.0 | 2.6 | 0.11 | 0.36 | 0.36 | 98 | 1012.1 |
| 20260509090515 | 42 | 211 | 0.0 | 1.7 | 0.11 | 0.34 | 0.34 | 98 | 1012.1 |
| 20260509085535 | 42 | 211 | 0.0 | 1.7 | 0.12 | 0.33 | 0.33 | 97 | 1012.1 |
| 20260509084515 | 42 | 211 | 0.9 | 2.6 | 0.12 | 0.31 | 0.31 | 97 | 1012.0 |
| 20260509083515 | 42 | 211 | 0.0 | 1.7 | 0.14 | 0.30 | 0.30 | 97 | 1012.3 |
| 20260509082515 | 42 | 211 | 0.9 | 1.7 | 0.14 | 0.27 | 0.27 | 97 | 1012.5 |
| 20260509081535 | 42 | 211 | 0.0 | 3.5 | 0.15 | 0.25 | 0.25 | 96 | 1012.6 |
| 20260509080535 | 42 | 201 | 1.7 | 6.1 | 0.16 | 0.23 | 0.23 | 96 | 1012.7 |
| 20260509075535 | 42 | 219 | 0.9 | 2.6 | 0.16 | 0.21 | 0.21 | 96 | 1012.7 |
| 20260509074515 | 42 | 237 | 0.9 | 4.3 | 0.16 | 0.19 | 0.19 | 95 | 1012.7 |
| 20260509073515 | 42 | 212 | 1.7 | 5.2 | 0.16 | 0.16 | 0.16 | 95 | 1012.9 |
| 20260509072515 | 42 | 209 | 0.0 | 2.6 | 0.13 | 0.13 | 0.13 | 94 | 1012.7 |
| 20260509071515 | 42 | 209 | 0.9 | 2.6 | 0.10 | 0.10 | 0.10 | 94 | 1012.7 |
| 20260509070515 | 42 | 209 | 0.9 | 2.6 | 0.07 | 0.07 | 0.07 | 92 | 1012.6 |